createdAt,value
2018-06-23T00:00:01.393Z,6.20
2018-06-23T00:02:28.391Z,5.30
2018-06-23T00:04:55.502Z,6.50
2018-06-23T00:07:22.605Z,5.60
2018-06-23T00:09:49.656Z,6.07
2018-06-23T00:12:16.673Z,5.60
2018-06-23T00:14:43.784Z,5.63
2018-06-23T00:17:10.978Z,6.00
2018-06-23T00:19:37.984Z,6.00
2018-06-23T00:22:05.185Z,5.60
2018-06-23T00:24:32.224Z,5.30
2018-06-23T00:26:59.269Z,5.77
2018-06-23T00:29:26.332Z,5.77
2018-06-23T00:31:53.258Z,6.00
2018-06-23T00:34:20.257Z,5.60
2018-06-23T00:36:47.253Z,5.83
2018-06-23T00:39:15.229Z,5.60
2018-06-23T00:41:42.347Z,4.73
2018-06-23T00:44:12.015Z,4.43
2018-06-23T00:46:39.053Z,5.20
2018-06-23T00:49:06.069Z,4.90
2018-06-23T00:51:33.077Z,4.90
2018-06-23T00:54:00.168Z,4.40
2018-06-23T00:56:27.252Z,5.30
2018-06-23T00:59:05.797Z,4.73
2018-06-23T01:01:32.794Z,4.43
2018-06-23T01:03:59.781Z,4.17
2018-06-23T01:06:26.788Z,5.07
2018-06-23T01:08:53.816Z,4.17
2018-06-23T01:11:20.795Z,5.00
2018-06-23T01:13:47.777Z,4.83
2018-06-23T01:16:14.949Z,4.73
2018-06-23T01:18:42.112Z,4.60
2018-06-23T01:21:09.216Z,3.87
2018-06-23T01:23:36.290Z,4.07
2018-06-23T01:26:03.247Z,3.80
2018-06-23T01:28:30.232Z,4.17
2018-06-23T01:30:57.361Z,3.77
2018-06-23T01:33:24.388Z,3.80
2018-06-23T01:35:51.453Z,3.83
2018-06-23T01:38:18.402Z,3.57
2018-06-23T01:40:45.416Z,3.17
2018-06-23T01:43:12.467Z,3.13
2018-06-23T01:45:39.530Z,3.80
2018-06-23T01:48:06.648Z,3.10
2018-06-23T01:50:33.712Z,3.50
2018-06-23T01:53:00.657Z,3.00
2018-06-23T01:55:27.775Z,2.67
2018-06-23T01:57:54.709Z,2.77
2018-06-23T02:00:21.654Z,2.90
2018-06-23T02:02:48.577Z,2.87
2018-06-23T02:05:15.530Z,2.80
2018-06-23T02:07:42.481Z,3.20
2018-06-23T02:10:09.417Z,2.87
2018-06-23T02:12:36.329Z,3.33
2018-06-23T02:15:10.164Z,2.93
2018-06-23T02:17:43.998Z,2.90
2018-06-23T02:20:16.629Z,2.80
2018-06-23T02:22:49.273Z,2.80
2018-06-23T02:25:21.941Z,2.07
2018-06-23T02:27:54.669Z,3.17
2018-06-23T02:30:27.303Z,2.90
2018-06-23T02:32:54.262Z,2.63
2018-06-23T02:35:21.614Z,2.77
2018-06-23T02:37:48.529Z,3.00
2018-06-23T02:40:15.474Z,2.93
2018-06-23T02:42:42.417Z,2.77
2018-06-23T02:45:09.334Z,2.90
2018-06-23T02:47:36.371Z,2.90
2018-06-23T02:50:03.615Z,2.60
2018-06-23T02:52:31.131Z,2.80
2018-06-23T02:54:58.049Z,2.43
2018-06-23T02:57:24.970Z,3.07
2018-06-23T02:59:51.885Z,2.60
2018-06-23T03:02:18.846Z,3.27
2018-06-23T03:04:45.773Z,2.63
2018-06-23T03:07:12.701Z,2.50
2018-06-23T03:09:39.630Z,2.90
2018-06-23T03:12:06.569Z,3.03
2018-06-23T03:14:33.476Z,3.57
2018-06-23T03:17:00.401Z,3.50
2018-06-23T03:19:27.326Z,3.27
2018-06-23T03:21:54.268Z,3.27
2018-06-23T03:24:21.189Z,3.47
2018-06-23T03:26:48.134Z,2.60
2018-06-23T03:29:15.053Z,2.50
2018-06-23T03:31:41.994Z,2.27
2018-06-23T03:34:08.912Z,2.57
2018-06-23T03:36:36.080Z,2.20
2018-06-23T03:39:04.910Z,2.13
2018-06-23T03:41:31.849Z,2.10
2018-06-23T03:43:58.794Z,2.47
2018-06-23T03:46:25.717Z,2.27
2018-06-23T03:48:52.904Z,1.90
2018-06-23T03:51:19.820Z,1.80
2018-06-23T03:53:46.754Z,1.60
2018-06-23T03:56:13.677Z,1.93
2018-06-23T03:58:40.589Z,2.10
2018-06-23T04:01:08.086Z,1.87
2018-06-23T04:03:35.062Z,2.00
2018-06-23T04:06:02.201Z,2.07
2018-06-23T04:08:29.117Z,2.20
2018-06-23T04:10:56.044Z,2.00
2018-06-23T04:13:22.972Z,2.00
2018-06-23T04:15:49.900Z,2.30
2018-06-23T04:18:16.813Z,2.30
2018-06-23T04:20:43.720Z,2.63
2018-06-23T04:23:10.642Z,2.60
2018-06-23T04:25:37.549Z,2.97
2018-06-23T04:28:04.503Z,2.90
2018-06-23T04:30:31.433Z,3.33
2018-06-23T04:32:58.369Z,3.07
2018-06-23T04:35:25.282Z,3.60
2018-06-23T04:37:52.207Z,3.67
2018-06-23T04:40:19.189Z,3.50
2018-06-23T04:42:46.397Z,2.83
2018-06-23T04:45:13.321Z,2.77
2018-06-23T04:47:40.398Z,3.23
2018-06-23T04:50:07.444Z,3.57
2018-06-23T04:52:34.376Z,3.73
2018-06-23T04:55:01.308Z,4.47
2018-06-23T04:57:28.233Z,4.13
2018-06-23T04:59:55.156Z,4.17
2018-06-23T05:02:22.072Z,4.00
2018-06-23T05:04:48.978Z,4.20
2018-06-23T05:07:15.898Z,4.43
2018-06-23T05:09:42.809Z,4.27
2018-06-23T05:12:09.725Z,4.70
2018-06-23T05:14:36.641Z,3.63
2018-06-23T05:17:04.202Z,3.97
2018-06-23T05:19:31.115Z,4.07
2018-06-23T05:21:58.037Z,3.60
2018-06-23T05:24:24.985Z,3.10
2018-06-23T05:26:51.918Z,3.60
2018-06-23T05:31:52.686Z,3.93
2018-06-23T05:34:19.577Z,3.47
2018-06-23T05:36:46.487Z,3.07
2018-06-23T05:39:13.408Z,2.90
2018-06-23T05:41:40.330Z,2.87
2018-06-23T05:44:07.253Z,3.10
2018-06-23T05:46:34.377Z,3.03
2018-06-23T05:49:01.293Z,2.93
2018-06-23T05:51:28.369Z,2.70
2018-06-23T05:53:55.308Z,2.20
2018-06-23T05:56:22.236Z,2.07
2018-06-23T05:58:49.169Z,3.03
2018-06-23T06:01:16.085Z,2.70
2018-06-23T06:03:43.023Z,2.53
2018-06-23T06:06:09.960Z,2.60
2018-06-23T06:08:36.902Z,2.30
2018-06-23T06:11:03.806Z,2.77
2018-06-23T06:13:30.737Z,2.73
2018-06-23T06:15:57.656Z,2.77
2018-06-23T06:18:24.593Z,2.80
2018-06-23T06:20:51.504Z,2.90
2018-06-23T06:23:18.428Z,2.37
2018-06-23T06:25:45.356Z,3.00
2018-06-23T06:28:12.280Z,2.83
2018-06-23T06:30:39.204Z,3.10
2018-06-23T06:33:06.173Z,3.43
2018-06-23T06:35:33.111Z,3.03
2018-06-23T06:38:00.010Z,2.80
2018-06-23T06:40:26.949Z,3.23
2018-06-23T06:42:53.857Z,3.23
2018-06-23T06:45:20.793Z,3.17
2018-06-23T06:47:47.721Z,3.03
2018-06-23T06:50:14.669Z,3.47
2018-06-23T06:52:41.584Z,2.83
2018-06-23T06:55:08.529Z,3.63
2018-06-23T06:57:35.457Z,2.83
2018-06-23T07:00:02.433Z,3.90
2018-06-23T07:02:29.338Z,4.03
2018-06-23T07:04:56.269Z,2.70
2018-06-23T07:07:23.196Z,2.80
2018-06-23T07:09:50.117Z,3.30
2018-06-23T07:12:17.068Z,3.23
2018-06-23T07:14:43.992Z,3.10
2018-06-23T07:17:10.909Z,3.43
2018-06-23T07:19:37.836Z,3.83
2018-06-23T07:22:04.756Z,3.50
2018-06-23T07:24:31.686Z,3.20
2018-06-23T07:26:58.606Z,3.63
2018-06-23T07:29:25.540Z,3.70
2018-06-23T07:31:52.440Z,3.13
2018-06-23T07:34:19.408Z,3.33
2018-06-23T07:36:46.289Z,3.10
2018-06-23T07:39:13.212Z,3.47
2018-06-23T07:41:40.110Z,3.73
2018-06-23T07:44:07.743Z,3.47
2018-06-23T07:46:35.277Z,3.87
2018-06-23T07:49:02.248Z,3.10
2018-06-23T07:51:29.225Z,3.00
2018-06-23T07:53:56.164Z,3.10
2018-06-23T07:56:23.129Z,3.40
2018-06-23T07:58:50.052Z,3.70
2018-06-23T08:01:16.985Z,4.07
2018-06-23T08:03:43.902Z,3.83
2018-06-23T08:06:10.848Z,3.00
2018-06-23T08:08:37.762Z,2.47
2018-06-23T08:11:04.706Z,2.80
2018-06-23T08:13:31.625Z,2.83
2018-06-23T08:15:58.586Z,2.57
2018-06-23T08:18:25.698Z,3.23
2018-06-23T08:20:52.630Z,3.23
2018-06-23T08:23:19.896Z,3.90
2018-06-23T08:25:46.877Z,4.20
2018-06-23T08:28:13.784Z,3.70
2018-06-23T08:30:40.712Z,3.60
2018-06-23T08:33:07.636Z,3.47
2018-06-23T08:35:34.544Z,3.93
2018-06-23T08:38:01.445Z,3.60
2018-06-23T08:40:28.364Z,3.80
2018-06-23T08:42:55.294Z,3.07
2018-06-23T08:45:22.208Z,2.93
2018-06-23T08:47:49.131Z,2.90
2018-06-23T08:50:16.053Z,2.90
2018-06-23T08:52:42.983Z,3.10
2018-06-23T08:55:09.901Z,3.10
2018-06-23T08:57:36.825Z,3.20
2018-06-23T09:00:04.207Z,3.10
2018-06-23T09:02:31.132Z,3.00
2018-06-23T09:04:58.049Z,3.60
2018-06-23T09:07:25.272Z,3.80
2018-06-23T09:09:52.232Z,3.40
2018-06-23T09:12:19.151Z,3.80
2018-06-23T09:14:46.058Z,3.50
2018-06-23T09:17:12.981Z,3.47
2018-06-23T09:19:40.051Z,3.60
2018-06-23T09:22:06.983Z,4.30
2018-06-23T09:24:33.930Z,4.40
2018-06-23T09:27:00.901Z,2.90
2018-06-23T09:29:27.826Z,3.50
2018-06-23T09:31:54.762Z,3.93
2018-06-23T09:34:21.675Z,4.47
2018-06-23T09:36:48.611Z,3.83
2018-06-23T09:39:15.528Z,3.50
2018-06-23T09:41:42.456Z,4.13
2018-06-23T09:44:09.664Z,3.67
2018-06-23T09:46:38.388Z,4.13
2018-06-23T09:49:05.991Z,3.83
2018-06-23T09:51:32.921Z,3.00
2018-06-23T09:53:59.840Z,3.83
2018-06-23T09:56:26.761Z,3.40
2018-06-23T09:58:53.687Z,3.00
2018-06-23T10:01:20.623Z,3.10
2018-06-23T10:03:49.339Z,2.83
2018-06-23T10:06:17.702Z,3.13
2018-06-23T10:08:46.375Z,2.97
2018-06-23T10:11:15.909Z,3.30
2018-06-23T10:13:42.876Z,3.13
2018-06-23T10:16:09.831Z,2.57
2018-06-23T10:18:36.744Z,2.43
2018-06-23T10:21:03.728Z,3.03
2018-06-23T10:23:30.649Z,2.43
2018-06-23T10:25:57.608Z,2.60
2018-06-23T10:28:24.601Z,2.37
2018-06-23T10:30:51.533Z,1.80
2018-06-23T10:33:18.465Z,2.20
2018-06-23T10:35:45.409Z,1.90
2018-06-23T10:38:12.340Z,1.90
2018-06-23T10:40:39.302Z,2.00
2018-06-23T10:43:06.229Z,2.03
2018-06-23T10:45:33.134Z,1.87
2018-06-23T10:48:00.085Z,2.13
2018-06-23T10:50:27.034Z,1.83
2018-06-23T10:52:53.984Z,2.10
2018-06-23T10:55:20.905Z,1.90
2018-06-23T10:57:47.908Z,2.00
2018-06-23T11:00:14.832Z,2.23
2018-06-23T11:02:41.760Z,2.40
2018-06-23T11:05:08.727Z,2.20
2018-06-23T11:07:35.732Z,2.40
2018-06-23T11:10:02.705Z,2.40
2018-06-23T11:12:29.640Z,2.60
2018-06-23T11:14:56.565Z,2.33
2018-06-23T11:17:23.518Z,2.20
2018-06-23T11:19:50.428Z,2.67
2018-06-23T11:22:17.377Z,3.13
2018-06-23T11:24:44.325Z,2.90
2018-06-23T11:27:11.253Z,2.77
2018-06-23T11:29:38.185Z,2.40
2018-06-23T11:32:05.177Z,2.40
2018-06-23T11:34:32.140Z,2.07
2018-06-23T11:36:59.073Z,2.17
2018-06-23T11:39:26.072Z,2.13
2018-06-23T11:41:52.997Z,1.90
2018-06-23T11:44:19.926Z,2.00
2018-06-23T11:46:46.874Z,2.30
2018-06-23T11:49:13.804Z,2.07
2018-06-23T11:51:40.818Z,1.87
2018-06-23T11:54:07.801Z,2.10
2018-06-23T11:56:34.770Z,1.97
2018-06-23T11:59:01.705Z,2.03
2018-06-23T12:01:28.658Z,2.00
2018-06-23T12:03:55.612Z,2.43
2018-06-23T12:06:24.364Z,2.40
2018-06-23T12:08:51.364Z,2.47
2018-06-23T12:11:18.283Z,2.90
2018-06-23T12:13:45.214Z,2.60
2018-06-23T12:16:12.145Z,2.50
2018-06-23T12:18:39.094Z,2.30
2018-06-23T12:21:06.025Z,2.30
2018-06-23T12:23:32.962Z,2.57
2018-06-23T12:25:59.915Z,2.07
2018-06-23T12:28:26.868Z,2.10
2018-06-23T12:30:53.825Z,1.77
2018-06-23T12:33:20.752Z,1.87
2018-06-23T12:35:47.686Z,1.67
2018-06-23T12:38:14.666Z,2.00
2018-06-23T12:40:41.609Z,2.17
2018-06-23T12:43:08.544Z,1.90
2018-06-23T12:45:35.461Z,1.80
2018-06-23T12:48:02.382Z,2.17
2018-06-23T12:50:29.313Z,1.70
2018-06-23T12:52:56.245Z,2.00
2018-06-23T12:55:23.161Z,2.00
2018-06-23T12:57:50.090Z,2.20
2018-06-23T13:00:17.029Z,2.00
2018-06-23T13:02:43.953Z,2.10
2018-06-23T13:05:10.880Z,1.90
2018-06-23T13:07:37.838Z,2.20
2018-06-23T13:10:04.829Z,2.50
2018-06-23T13:12:31.763Z,2.60
2018-06-23T13:14:58.722Z,2.97
2018-06-23T13:17:25.674Z,2.77
2018-06-23T13:19:52.597Z,2.50
2018-06-23T13:22:19.645Z,2.60
2018-06-23T13:24:46.560Z,2.60
2018-06-23T13:27:13.489Z,2.20
2018-06-23T13:29:40.456Z,2.80
2018-06-23T13:32:07.407Z,2.43
2018-06-23T13:34:34.369Z,2.37
2018-06-23T13:37:01.499Z,2.23
2018-06-23T13:39:28.464Z,1.93
2018-06-23T13:41:55.387Z,1.90
2018-06-23T13:44:22.328Z,2.40
2018-06-23T13:46:49.248Z,1.93
2018-06-23T13:49:16.208Z,2.30
2018-06-23T13:51:43.149Z,2.63
2018-06-23T13:54:10.149Z,2.90
2018-06-23T13:56:39.221Z,2.60
2018-06-23T13:59:08.996Z,2.40
2018-06-23T14:01:38.162Z,2.43
2018-06-23T14:04:05.114Z,2.10
2018-06-23T14:06:32.053Z,2.47
2018-06-23T14:08:58.996Z,2.37
2018-06-23T14:11:25.939Z,2.47
2018-06-23T14:13:52.874Z,2.27
2018-06-23T14:16:19.863Z,2.33
2018-06-23T14:18:46.781Z,2.43
2018-06-23T14:21:13.705Z,2.40
2018-06-23T14:23:40.660Z,3.13
2018-06-23T14:26:07.610Z,2.93
2018-06-23T14:28:34.537Z,2.47
2018-06-23T14:31:01.438Z,2.17
2018-06-23T14:33:28.377Z,3.17
2018-06-23T14:35:55.292Z,3.37
2018-06-23T14:38:22.223Z,3.13
2018-06-23T14:40:49.238Z,3.30
2018-06-23T14:43:16.178Z,3.70
2018-06-23T14:45:43.118Z,4.27
2018-06-23T14:48:10.035Z,3.60
2018-06-23T14:50:37.015Z,3.23
2018-06-23T14:53:03.936Z,3.27
2018-06-23T14:55:30.898Z,4.00
2018-06-23T14:57:57.810Z,3.43
2018-06-23T15:00:24.750Z,3.80
2018-06-23T15:02:51.670Z,3.40
2018-06-23T15:05:18.612Z,3.37
2018-06-23T15:07:45.546Z,3.63
2018-06-23T15:10:24.324Z,3.43
2018-06-23T15:13:02.794Z,3.40
2018-06-23T15:15:29.767Z,3.67
2018-06-23T15:17:56.676Z,4.03
2018-06-23T15:20:23.617Z,4.00
2018-06-23T15:22:50.553Z,3.40
2018-06-23T15:25:17.482Z,4.13
2018-06-23T15:27:44.417Z,3.50
2018-06-23T15:30:11.389Z,4.00
2018-06-23T15:32:38.331Z,3.83
2018-06-23T15:35:05.283Z,4.33
2018-06-23T15:37:32.218Z,4.07
2018-06-23T15:39:59.171Z,3.83
2018-06-23T15:42:26.094Z,3.77
2018-06-23T15:44:53.268Z,4.33
2018-06-23T15:47:20.201Z,4.73
2018-06-23T15:49:47.141Z,4.80
2018-06-23T15:52:14.081Z,3.87
2018-06-23T15:54:41.003Z,4.80
2018-06-23T15:57:07.954Z,4.83
2018-06-23T15:59:34.889Z,6.17
2018-06-23T16:02:01.921Z,5.67
2018-06-23T16:04:28.872Z,5.97
2018-06-23T16:06:55.793Z,4.60
2018-06-23T16:09:22.740Z,5.30
2018-06-23T16:11:49.708Z,4.37
2018-06-23T16:14:16.617Z,4.90
2018-06-23T16:16:43.588Z,3.40
2018-06-23T16:19:10.501Z,3.37
2018-06-23T16:21:37.457Z,3.87
2018-06-23T16:24:04.414Z,4.03
2018-06-23T16:26:31.357Z,3.97
2018-06-23T16:28:58.302Z,4.20
2018-06-23T16:31:25.264Z,3.93
2018-06-23T16:33:52.185Z,4.07
2018-06-23T16:36:19.144Z,4.00
2018-06-23T16:38:46.385Z,4.10
2018-06-23T16:41:13.361Z,4.63
2018-06-23T16:43:40.338Z,4.40
2018-06-23T16:46:07.273Z,3.50
2018-06-23T16:48:34.274Z,4.23
2018-06-23T16:51:01.361Z,4.40
2018-06-23T16:53:28.309Z,5.10
2018-06-23T16:55:55.285Z,5.07
2018-06-23T16:58:22.222Z,4.57
2018-06-23T17:00:49.197Z,5.57
2018-06-23T17:03:16.157Z,4.80
2018-06-23T17:05:43.108Z,5.37
2018-06-23T17:08:10.053Z,4.97
2018-06-23T17:10:36.989Z,5.73
2018-06-23T17:13:03.916Z,5.17
2018-06-23T17:15:30.873Z,6.03
2018-06-23T17:17:57.811Z,5.37
2018-06-23T17:20:24.782Z,3.93
2018-06-23T17:22:51.705Z,3.70
2018-06-23T17:25:18.637Z,3.50
2018-06-23T17:27:45.587Z,3.73
2018-06-23T17:30:12.539Z,3.70
2018-06-23T17:32:39.489Z,3.97
2018-06-23T17:35:06.433Z,4.30
2018-06-23T17:37:33.384Z,4.27
2018-06-23T17:40:00.308Z,4.53
2018-06-23T17:42:27.250Z,4.63
2018-06-23T17:44:54.191Z,4.67
2018-06-23T17:47:21.123Z,4.90
2018-06-23T17:49:48.057Z,4.23
2018-06-23T17:52:14.994Z,4.77
2018-06-23T17:54:41.937Z,5.70
2018-06-23T17:57:09.010Z,5.30
2018-06-23T17:59:35.878Z,5.10
2018-06-23T18:02:02.875Z,5.50
2018-06-23T18:04:29.793Z,4.57
2018-06-23T18:06:56.745Z,4.93
2018-06-23T18:09:23.689Z,5.13
2018-06-23T18:11:50.653Z,4.77
2018-06-23T18:14:17.561Z,5.60
2018-06-23T18:16:44.577Z,5.10
2018-06-23T18:19:11.512Z,5.07
2018-06-23T18:21:38.453Z,5.60
2018-06-23T18:24:05.408Z,4.27
2018-06-23T18:26:32.572Z,5.07
2018-06-23T18:28:59.530Z,5.07
2018-06-23T18:31:26.814Z,4.73
2018-06-23T18:33:53.816Z,4.93
2018-06-23T18:36:20.778Z,5.30
2018-06-23T18:38:47.715Z,5.63
2018-06-23T18:41:14.677Z,5.53
2018-06-23T18:43:41.619Z,5.30
2018-06-23T18:46:08.557Z,5.30
2018-06-23T18:48:35.515Z,6.17
2018-06-23T18:51:02.489Z,6.83
2018-06-23T18:53:29.434Z,7.17
2018-06-23T18:55:56.364Z,7.07
2018-06-23T18:58:23.317Z,7.27
2018-06-23T19:00:50.274Z,7.27
2018-06-23T19:03:17.227Z,7.60
2018-06-23T19:05:44.218Z,7.00
2018-06-23T19:08:11.183Z,7.10
2018-06-23T19:10:38.123Z,6.97
2018-06-23T19:13:05.106Z,6.67
2018-06-23T19:15:32.055Z,6.93
2018-06-23T19:17:58.997Z,6.37
2018-06-23T19:20:25.949Z,7.43
2018-06-23T19:22:52.901Z,6.63
2018-06-23T19:25:19.840Z,6.53
2018-06-23T19:27:46.799Z,6.40
2018-06-23T19:30:13.841Z,6.03
2018-06-23T19:32:40.716Z,6.80
2018-06-23T19:35:07.638Z,6.50
2018-06-23T19:37:34.617Z,5.17
2018-06-23T19:40:01.559Z,5.60
2018-06-23T19:42:28.517Z,6.23
2018-06-23T19:44:55.456Z,6.27
2018-06-23T19:47:22.393Z,6.20
2018-06-23T19:49:49.316Z,6.60
2018-06-23T19:52:16.376Z,5.97
2018-06-23T19:54:43.334Z,5.87
2018-06-23T19:57:10.288Z,5.80
2018-06-23T19:59:37.218Z,5.63
2018-06-23T20:02:04.266Z,5.50
2018-06-23T20:04:31.302Z,5.93
2018-06-23T20:06:58.165Z,4.97
2018-06-23T20:09:25.097Z,4.63
2018-06-23T20:11:52.053Z,4.43
2018-06-23T20:14:19.019Z,4.23
2018-06-23T20:16:45.964Z,5.00
2018-06-23T20:19:12.889Z,4.67
2018-06-23T20:21:39.833Z,4.37
2018-06-23T20:24:06.768Z,4.30
2018-06-23T20:26:33.726Z,3.80
2018-06-23T20:29:00.674Z,3.87
2018-06-23T20:31:27.596Z,4.13
2018-06-23T20:33:54.758Z,3.60
2018-06-23T20:36:22.486Z,3.60
2018-06-23T20:38:49.441Z,4.63
2018-06-23T20:41:16.384Z,3.80
2018-06-23T20:43:43.320Z,3.63
2018-06-23T20:46:10.277Z,4.80
2018-06-23T20:48:37.232Z,3.97
2018-06-23T20:51:04.192Z,4.17
2018-06-23T20:53:31.121Z,3.60
2018-06-23T20:55:58.167Z,4.40
2018-06-23T20:58:25.100Z,4.30
2018-06-23T21:00:52.068Z,4.33
2018-06-23T21:03:19.056Z,3.77
2018-06-23T21:05:46.007Z,4.40
2018-06-23T21:08:12.933Z,4.23
2018-06-23T21:10:43.746Z,3.57
2018-06-23T21:13:11.202Z,4.20
2018-06-23T21:15:38.153Z,3.50
2018-06-23T21:18:05.301Z,3.70
2018-06-23T21:20:32.660Z,3.80
2018-06-23T21:22:59.967Z,3.50
2018-06-23T21:25:27.190Z,3.83
2018-06-23T21:27:54.133Z,4.23
2018-06-23T21:30:21.112Z,3.93
2018-06-23T21:32:48.044Z,3.80
2018-06-23T21:35:15.010Z,3.93
2018-06-23T21:37:41.988Z,4.13
2018-06-23T21:40:09.213Z,3.90
2018-06-23T21:42:36.077Z,4.10
2018-06-23T21:45:03.065Z,4.00
2018-06-23T21:47:30.027Z,3.77
2018-06-23T21:49:57.497Z,4.40
2018-06-23T21:52:24.460Z,3.60
2018-06-23T21:54:51.410Z,4.30
2018-06-23T21:57:18.341Z,3.97
2018-06-23T21:59:45.277Z,3.90
2018-06-23T22:02:12.281Z,3.97
2018-06-23T22:04:39.338Z,4.77
2018-06-23T22:07:07.616Z,4.53
2018-06-23T22:09:34.588Z,4.30
2018-06-23T22:12:01.587Z,4.10
2018-06-23T22:14:28.513Z,4.30
2018-06-23T22:16:55.457Z,4.80
2018-06-23T22:19:22.500Z,4.37
2018-06-23T22:21:49.466Z,5.00
2018-06-23T22:24:16.413Z,5.13
2018-06-23T22:26:43.360Z,4.90
2018-06-23T22:29:10.344Z,4.80
2018-06-23T22:31:37.294Z,4.80
2018-06-23T22:34:04.526Z,4.33
2018-06-23T22:36:31.616Z,5.37
2018-06-23T22:39:02.108Z,4.70
2018-06-23T22:41:29.061Z,4.80
2018-06-23T22:43:56.018Z,5.50
2018-06-23T22:46:22.970Z,4.93
2018-06-23T22:48:49.896Z,4.73
2018-06-23T22:51:17.436Z,4.83
2018-06-23T22:53:44.361Z,4.73
2018-06-23T22:56:11.307Z,4.80
2018-06-23T22:58:38.269Z,4.80
2018-06-23T23:01:05.315Z,5.13
2018-06-23T23:03:32.265Z,4.60
2018-06-23T23:05:59.813Z,4.73
2018-06-23T23:08:26.737Z,4.90
2018-06-23T23:10:53.714Z,5.03
2018-06-23T23:13:20.637Z,4.77
2018-06-23T23:15:47.581Z,5.00
2018-06-23T23:18:14.573Z,5.50
2018-06-23T23:20:41.477Z,4.93
2018-06-23T23:23:08.415Z,5.40
2018-06-23T23:25:35.425Z,5.00
2018-06-23T23:28:02.642Z,6.23
2018-06-23T23:30:30.409Z,5.90
2018-06-23T23:32:57.473Z,6.17
2018-06-23T23:35:24.414Z,6.03
2018-06-23T23:37:51.355Z,5.93
2018-06-23T23:40:18.315Z,6.37
2018-06-23T23:42:45.255Z,5.67
2018-06-23T23:45:12.202Z,6.33
2018-06-23T23:47:39.149Z,6.80
2018-06-23T23:50:06.090Z,5.87
2018-06-23T23:52:33.077Z,6.20
2018-06-23T23:54:59.990Z,6.80
2018-06-23T23:57:26.936Z,6.73
2018-06-23T23:59:53.898Z,6.57
